TPA101 SKRG-MGGT
Flight info
| Callsign | TPA101 |
|---|---|
| Flight time | N/A |
| Altitude | 38000 |
| Route | SKRG KOTIN3A KOTIN DCT IVROS DCT TBG DCT BUFEO DCT KAPAN KAPA2C DCT MGGT |
| Aircraft | A333/H-SDE3GHIJ2J3J5M1RVWXY/LB2D1 |
Departure
| Time | 2026-05-10 00:08 |
|---|---|
| Airport | Jose Maria Córdova International Airport (SKRG) |
Arrival
| Time | N/A |
|---|---|
| Airport | La Aurora International Airport (MGGT) |
| Time | Latitude | Longitude | Altitude | Speed | Heading |
|---|---|---|---|---|---|
| 2026-05-09 23:46 | 6.17590 | -75.42675 | 6991 ft | 0 kts | 283° |
| 2026-05-09 23:57 | 6.17588 | -75.42669 | 7001 ft | 3 kts | 283° |
| 2026-05-09 23:58 | 6.17584 | -75.42650 | 6991 ft | 3 kts | 283° |
| 2026-05-09 23:58 | 6.17580 | -75.42632 | 6992 ft | 3 kts | 281° |
| 2026-05-09 23:58 | 6.17580 | -75.42612 | 6991 ft | 3 kts | 234° |
| 2026-05-09 23:58 | 6.17595 | -75.42599 | 6991 ft | 3 kts | 188° |
| 2026-05-09 23:59 | 6.17603 | -75.42597 | 6994 ft | 0 kts | 169° |
| 2026-05-10 00:02 | 6.17592 | -75.42594 | 6977 ft | 3 kts | 158° |
| 2026-05-10 00:02 | 6.17583 | -75.42573 | 7006 ft | 5 kts | 110° |
| 2026-05-10 00:02 | 6.17567 | -75.42524 | 6993 ft | 10 kts | 108° |
| 2026-05-10 00:03 | 6.17505 | -75.42488 | 6994 ft | 13 kts | 174° |
| 2026-05-10 00:03 | 6.17398 | -75.42486 | 6993 ft | 18 kts | 180° |
| 2026-05-10 00:03 | 6.17254 | -75.42487 | 6987 ft | 23 kts | 180° |
| 2026-05-10 00:03 | 6.17087 | -75.42488 | 6990 ft | 28 kts | 180° |
| 2026-05-10 00:04 | 6.16873 | -75.42487 | 6988 ft | 32 kts | 179° |
| 2026-05-10 00:04 | 6.16637 | -75.42484 | 6979 ft | 36 kts | 179° |
| 2026-05-10 00:04 | 6.16379 | -75.42483 | 6978 ft | 39 kts | 179° |
| 2026-05-10 00:04 | 6.16098 | -75.42480 | 6973 ft | 41 kts | 179° |
| 2026-05-10 00:05 | 6.15802 | -75.42478 | 6967 ft | 43 kts | 183° |
| 2026-05-10 00:05 | 6.15513 | -75.42476 | 6963 ft | 42 kts | 179° |
| 2026-05-10 00:05 | 6.15208 | -75.42472 | 6957 ft | 45 kts | 179° |
| 2026-05-10 00:05 | 6.14927 | -75.42472 | 6951 ft | 27 kts | 191° |
| 2026-05-10 00:06 | 6.14825 | -75.42446 | 6950 ft | 7 kts | 111° |
| 2026-05-10 00:06 | 6.14820 | -75.42423 | 6952 ft | 0 kts | 97° |
| 2026-05-10 00:06 | 6.14821 | -75.42404 | 6954 ft | 7 kts | 84° |
| 2026-05-10 00:07 | 6.14871 | -75.42353 | 6950 ft | 15 kts | 33° |
| 2026-05-10 00:07 | 6.14982 | -75.42305 | 6957 ft | 20 kts | 14° |
| 2026-05-10 00:07 | 6.15163 | -75.42298 | 6958 ft | 41 kts | 360° |
| 2026-05-10 00:07 | 6.15633 | -75.42303 | 6966 ft | 93 kts | 359° |
| 2026-05-10 00:08 | 6.16450 | -75.42311 | 6978 ft | 141 kts | 359° |
| 2026-05-10 00:08 | 6.17574 | -75.42315 | 7015 ft | 184 kts | 1° |
| 2026-05-10 00:08 | 6.18848 | -75.42339 | 7741 ft | 179 kts | 359° |
| 2026-05-10 00:08 | 6.20089 | -75.42361 | 8404 ft | 181 kts | 1° |
| 2026-05-10 00:09 | 6.21354 | -75.42361 | 8923 ft | 183 kts | 2° |
| 2026-05-10 00:09 | 6.22612 | -75.42366 | 9455 ft | 179 kts | 2° |
| 2026-05-10 00:09 | 6.23953 | -75.42379 | 9513 ft | 207 kts | 2° |
| 2026-05-10 00:09 | 6.25396 | -75.42381 | 9999 ft | 207 kts | 2° |
| 2026-05-10 00:10 | 6.26682 | -75.42387 | 10556 ft | 197 kts | 2° |
| 2026-05-10 00:10 | 6.28023 | -75.42395 | 11071 ft | 192 kts | 2° |
| 2026-05-10 00:10 | 6.29350 | -75.42402 | 11454 ft | 193 kts | 2° |
| 2026-05-10 00:10 | 6.30702 | -75.42409 | 11852 ft | 194 kts | 2° |
| 2026-05-10 00:11 | 6.32052 | -75.42417 | 12279 ft | 193 kts | 1° |
| 2026-05-10 00:11 | 6.33402 | -75.42414 | 12433 ft | 195 kts | 2° |
| 2026-05-10 00:11 | 6.34754 | -75.42403 | 12804 ft | 196 kts | 2° |
| 2026-05-10 00:11 | 6.36117 | -75.42393 | 13127 ft | 198 kts | 2° |
| 2026-05-10 00:12 | 6.37506 | -75.42380 | 13484 ft | 198 kts | 2° |
| 2026-05-10 00:12 | 6.38891 | -75.42366 | 13826 ft | 199 kts | 2° |
| 2026-05-10 00:12 | 6.40269 | -75.42369 | 14160 ft | 200 kts | 358° |
| 2026-05-10 00:12 | 6.41658 | -75.42591 | 14515 ft | 203 kts | 344° |
| 2026-05-10 00:13 | 6.42995 | -75.43199 | 14622 ft | 220 kts | 325° |
| 2026-05-10 00:13 | 6.44127 | -75.44264 | 14774 ft | 233 kts | 306° |
| 2026-05-10 00:13 | 6.45088 | -75.45738 | 14527 ft | 270 kts | 298° |
| 2026-05-10 00:13 | 6.46050 | -75.47508 | 14334 ft | 300 kts | 299° |
| 2026-05-10 00:14 | 6.47087 | -75.49319 | 14812 ft | 300 kts | 300° |
| 2026-05-10 00:14 | 6.48119 | -75.51098 | 15348 ft | 286 kts | 300° |
| 2026-05-10 00:14 | 6.49107 | -75.52799 | 15633 ft | 282 kts | 300° |
| 2026-05-10 00:14 | 6.50099 | -75.54513 | 15709 ft | 282 kts | 299° |
| 2026-05-10 00:15 | 6.50947 | -75.56285 | 15758 ft | 280 kts | 289° |
| 2026-05-10 00:15 | 6.51386 | -75.58168 | 16057 ft | 281 kts | 276° |
| 2026-05-10 00:15 | 6.51517 | -75.60138 | 16546 ft | 282 kts | 272° |
| 2026-05-10 00:15 | 6.51575 | -75.62090 | 17048 ft | 282 kts | 271° |
| 2026-05-10 00:16 | 6.51626 | -75.64080 | 17517 ft | 283 kts | 272° |
| 2026-05-10 00:16 | 6.51677 | -75.66052 | 18009 ft | 284 kts | 272° |
| 2026-05-10 00:16 | 6.51733 | -75.68051 | 18422 ft | 287 kts | 272° |
| 2026-05-10 00:16 | 6.51791 | -75.70076 | 18841 ft | 288 kts | 272° |
| 2026-05-10 00:17 | 6.51849 | -75.72074 | 19204 ft | 291 kts | 272° |
| 2026-05-10 00:17 | 6.51909 | -75.74126 | 19556 ft | 294 kts | 272° |
| 2026-05-10 00:17 | 6.51970 | -75.76201 | 19928 ft | 296 kts | 272° |
| 2026-05-10 00:17 | 6.52031 | -75.78282 | 20317 ft | 299 kts | 272° |
| 2026-05-10 00:18 | 6.52093 | -75.80363 | 20638 ft | 303 kts | 272° |
| 2026-05-10 00:18 | 6.52156 | -75.82496 | 21001 ft | 305 kts | 271° |
| 2026-05-10 00:18 | 6.52218 | -75.84617 | 21387 ft | 306 kts | 271° |
| 2026-05-10 00:18 | 6.52282 | -75.86788 | 21751 ft | 309 kts | 271° |
| 2026-05-10 00:19 | 6.52341 | -75.88803 | 22133 ft | 310 kts | 271° |
| 2026-05-10 00:19 | 6.52405 | -75.90967 | 22474 ft | 312 kts | 271° |
| 2026-05-10 00:19 | 6.52469 | -75.93162 | 22805 ft | 315 kts | 271° |
| 2026-05-10 00:19 | 6.52534 | -75.95388 | 23181 ft | 317 kts | 271° |
| 2026-05-10 00:20 | 6.52598 | -75.97594 | 23513 ft | 319 kts | 271° |
| 2026-05-10 00:20 | 6.52664 | -75.99853 | 23819 ft | 321 kts | 271° |
| 2026-05-10 00:20 | 6.52731 | -76.02089 | 24104 ft | 324 kts | 271° |
| 2026-05-10 00:20 | 6.52799 | -76.04367 | 24408 ft | 325 kts | 271° |
| 2026-05-10 00:21 | 6.52866 | -76.06631 | 24731 ft | 326 kts | 271° |
| 2026-05-10 00:21 | 6.52934 | -76.08940 | 24974 ft | 330 kts | 271° |
| 2026-05-10 00:21 | 6.53002 | -76.11235 | 25258 ft | 332 kts | 271° |
| 2026-05-10 00:21 | 6.53071 | -76.13586 | 25511 ft | 335 kts | 271° |
| 2026-05-10 00:22 | 6.53140 | -76.15919 | 25788 ft | 338 kts | 271° |
| 2026-05-10 00:22 | 6.53229 | -76.18269 | 26069 ft | 340 kts | 274° |
| 2026-05-10 00:22 | 6.53532 | -76.20646 | 26336 ft | 342 kts | 281° |
| 2026-05-10 00:22 | 6.54181 | -76.22947 | 26603 ft | 345 kts | 291° |
| 2026-05-10 00:23 | 6.55205 | -76.25144 | 26868 ft | 347 kts | 300° |
| 2026-05-10 00:23 | 6.56456 | -76.27203 | 27126 ft | 349 kts | 303° |
| 2026-05-10 00:23 | 6.57823 | -76.29246 | 27417 ft | 351 kts | 304° |
| 2026-05-10 00:23 | 6.59222 | -76.31245 | 27685 ft | 353 kts | 305° |
| 2026-05-10 00:24 | 6.60660 | -76.33270 | 27918 ft | 356 kts | 305° |
| 2026-05-10 00:24 | 6.62110 | -76.35318 | 28184 ft | 358 kts | 305° |
| 2026-05-10 00:24 | 6.63538 | -76.37353 | 28469 ft | 358 kts | 305° |
| 2026-05-10 00:24 | 6.64955 | -76.39388 | 28726 ft | 359 kts | 305° |
| 2026-05-10 00:25 | 6.66397 | -76.41471 | 28943 ft | 362 kts | 305° |
| 2026-05-10 00:25 | 6.67842 | -76.43567 | 29163 ft | 365 kts | 305° |
| 2026-05-10 00:25 | 6.69276 | -76.45651 | 29436 ft | 366 kts | 305° |
| 2026-05-10 00:25 | 6.70732 | -76.47768 | 29702 ft | 367 kts | 305° |
| 2026-05-10 00:26 | 6.72179 | -76.49873 | 29939 ft | 369 kts | 305° |
| 2026-05-10 00:26 | 6.73655 | -76.52020 | 30103 ft | 371 kts | 304° |
| 2026-05-10 00:26 | 6.75131 | -76.54165 | 30319 ft | 373 kts | 304° |
| 2026-05-10 00:26 | 6.76598 | -76.56297 | 30521 ft | 374 kts | 304° |
| 2026-05-10 00:27 | 6.78083 | -76.58456 | 30728 ft | 375 kts | 304° |
| 2026-05-10 00:27 | 6.79577 | -76.60629 | 30928 ft | 376 kts | 304° |
| 2026-05-10 00:27 | 6.81057 | -76.62781 | 31127 ft | 377 kts | 304° |
| 2026-05-10 00:27 | 6.82559 | -76.64965 | 31328 ft | 378 kts | 304° |
| 2026-05-10 00:28 | 6.84047 | -76.67129 | 31517 ft | 379 kts | 304° |
| 2026-05-10 00:28 | 6.85557 | -76.69325 | 31716 ft | 381 kts | 304° |
| 2026-05-10 00:28 | 6.87064 | -76.71517 | 31906 ft | 382 kts | 304° |
| 2026-05-10 00:28 | 6.88583 | -76.73727 | 32094 ft | 383 kts | 304° |
| 2026-05-10 00:29 | 6.90095 | -76.75927 | 32288 ft | 384 kts | 304° |
| 2026-05-10 00:29 | 6.91608 | -76.78129 | 32455 ft | 385 kts | 304° |
| 2026-05-10 00:29 | 6.93131 | -76.80346 | 32627 ft | 386 kts | 304° |
| 2026-05-10 00:29 | 6.94665 | -76.82579 | 32793 ft | 387 kts | 304° |
| 2026-05-10 00:30 | 6.96190 | -76.84799 | 32968 ft | 388 kts | 304° |
| 2026-05-10 00:30 | 6.97731 | -76.87042 | 33132 ft | 389 kts | 304° |
| 2026-05-10 00:30 | 6.99277 | -76.89294 | 33324 ft | 390 kts | 304° |
| 2026-05-10 00:30 | 7.00814 | -76.91532 | 33490 ft | 390 kts | 304° |
| 2026-05-10 00:31 | 7.02349 | -76.93768 | 33668 ft | 391 kts | 304° |
| 2026-05-10 00:31 | 7.03904 | -76.96033 | 33805 ft | 392 kts | 304° |
| 2026-05-10 00:31 | 7.05454 | -76.98293 | 33935 ft | 393 kts | 304° |
| 2026-05-10 00:31 | 7.07016 | -77.00568 | 34065 ft | 394 kts | 304° |
| 2026-05-10 00:32 | 7.08574 | -77.02839 | 34188 ft | 395 kts | 304° |
| 2026-05-10 00:32 | 7.10139 | -77.05120 | 34324 ft | 396 kts | 304° |
| 2026-05-10 00:32 | 7.11715 | -77.07419 | 34439 ft | 397 kts | 304° |
| 2026-05-10 00:32 | 7.13262 | -77.09674 | 34577 ft | 398 kts | 304° |
| 2026-05-10 00:33 | 7.14854 | -77.11995 | 34696 ft | 398 kts | 304° |
| 2026-05-10 00:33 | 7.16410 | -77.14265 | 34818 ft | 399 kts | 304° |
| 2026-05-10 00:33 | 7.17994 | -77.16574 | 34936 ft | 400 kts | 304° |
| 2026-05-10 00:33 | 7.19567 | -77.18870 | 35055 ft | 401 kts | 304° |
| 2026-05-10 00:34 | 7.21162 | -77.21198 | 35155 ft | 401 kts | 304° |
| 2026-05-10 00:34 | 7.22753 | -77.23519 | 35291 ft | 402 kts | 304° |
| 2026-05-10 00:34 | 7.24335 | -77.25827 | 35413 ft | 402 kts | 304° |
| 2026-05-10 00:34 | 7.25915 | -77.28134 | 35521 ft | 403 kts | 304° |
| 2026-05-10 00:35 | 7.27507 | -77.30459 | 35627 ft | 404 kts | 304° |
| 2026-05-10 00:35 | 7.29091 | -77.32771 | 35729 ft | 404 kts | 304° |
| 2026-05-10 00:35 | 7.30697 | -77.35116 | 35830 ft | 405 kts | 303° |
| 2026-05-10 00:35 | 7.32302 | -77.37460 | 35950 ft | 406 kts | 303° |
| 2026-05-10 00:36 | 7.33888 | -77.39777 | 36045 ft | 406 kts | 303° |
| 2026-05-10 00:36 | 7.37106 | -77.44479 | 36237 ft | 407 kts | 303° |
| 2026-05-10 00:37 | 7.40319 | -77.49176 | 36422 ft | 409 kts | 303° |
| 2026-05-10 00:37 | 7.43548 | -77.53895 | 36635 ft | 410 kts | 303° |
| 2026-05-10 00:38 | 7.46803 | -77.58655 | 36805 ft | 411 kts | 303° |
| 2026-05-10 00:38 | 7.50032 | -77.63379 | 36977 ft | 412 kts | 303° |
| 2026-05-10 00:39 | 7.53283 | -77.68137 | 37148 ft | 413 kts | 303° |
| 2026-05-10 00:39 | 7.56554 | -77.72926 | 37303 ft | 414 kts | 303° |
| 2026-05-10 00:40 | 7.59791 | -77.77724 | 37489 ft | 415 kts | 303° |
| 2026-05-10 00:40 | 7.63019 | -77.82544 | 37625 ft | 415 kts | 303° |
| 2026-05-10 00:41 | 7.66239 | -77.87357 | 37776 ft | 416 kts | 303° |
| 2026-05-10 00:41 | 7.69488 | -77.92207 | 37831 ft | 418 kts | 303° |
| 2026-05-10 00:42 | 7.74365 | -77.99486 | 37824 ft | 417 kts | 302° |
| 2026-05-10 00:42 | 7.77600 | -78.04316 | 37826 ft | 416 kts | 302° |
| 2026-05-10 00:43 | 7.80832 | -78.09143 | 37829 ft | 416 kts | 303° |
| 2026-05-10 00:43 | 7.84069 | -78.13980 | 37822 ft | 418 kts | 303° |
| 2026-05-10 00:44 | 7.86797 | -78.18057 | 37821 ft | 418 kts | 303° |
| 2026-05-10 00:44 | 7.90058 | -78.22933 | 37818 ft | 418 kts | 303° |
| 2026-05-10 00:45 | 7.93286 | -78.27759 | 37812 ft | 418 kts | 303° |
| 2026-05-10 00:45 | 7.96553 | -78.32648 | 37812 ft | 418 kts | 303° |
| 2026-05-10 00:46 | 7.99809 | -78.37520 | 37816 ft | 418 kts | 303° |
| 2026-05-10 00:46 | 8.03041 | -78.42360 | 37807 ft | 418 kts | 303° |
| 2026-05-10 00:47 | 8.06297 | -78.47234 | 37805 ft | 418 kts | 303° |
| 2026-05-10 00:47 | 8.09551 | -78.52110 | 37805 ft | 418 kts | 302° |
| 2026-05-10 00:48 | 8.12799 | -78.56978 | 37822 ft | 421 kts | 302° |
| 2026-05-10 00:48 | 8.16082 | -78.61899 | 37822 ft | 426 kts | 303° |
| 2026-05-10 00:49 | 8.19401 | -78.66877 | 37805 ft | 431 kts | 303° |
| 2026-05-10 00:49 | 8.22762 | -78.71919 | 37808 ft | 436 kts | 303° |
| 2026-05-10 00:50 | 8.26167 | -78.77027 | 37808 ft | 442 kts | 303° |
| 2026-05-10 00:50 | 8.29619 | -78.82209 | 37808 ft | 447 kts | 303° |
| 2026-05-10 00:51 | 8.33114 | -78.87458 | 37810 ft | 454 kts | 303° |
| 2026-05-10 00:51 | 8.36657 | -78.92782 | 37804 ft | 460 kts | 303° |
| 2026-05-10 00:52 | 8.40252 | -78.98184 | 37806 ft | 466 kts | 303° |
| 2026-05-10 00:52 | 8.43888 | -79.03650 | 37803 ft | 473 kts | 303° |
| 2026-05-10 00:53 | 8.47564 | -79.09181 | 37800 ft | 479 kts | 303° |
| 2026-05-10 00:53 | 8.51313 | -79.14822 | 37795 ft | 485 kts | 303° |
| 2026-05-10 00:54 | 8.55084 | -79.20498 | 37797 ft | 491 kts | 303° |
| 2026-05-10 00:54 | 8.58912 | -79.26263 | 37801 ft | 492 kts | 303° |
| 2026-05-10 00:55 | 8.62717 | -79.31994 | 37795 ft | 492 kts | 303° |
| 2026-05-10 00:55 | 8.66525 | -79.37733 | 37790 ft | 491 kts | 303° |
| 2026-05-10 00:56 | 8.70328 | -79.43468 | 37790 ft | 491 kts | 303° |
| 2026-05-10 00:56 | 8.74116 | -79.49181 | 37782 ft | 491 kts | 303° |
| 2026-05-10 00:57 | 8.77828 | -79.54936 | 37777 ft | 490 kts | 298° |
| 2026-05-10 00:57 | 8.80540 | -79.61276 | 37778 ft | 489 kts | 290° |
| 2026-05-10 00:58 | 8.82825 | -79.67720 | 37775 ft | 489 kts | 289° |
| 2026-05-10 00:58 | 8.85043 | -79.74219 | 37814 ft | 489 kts | 288° |
| 2026-05-10 00:59 | 8.87278 | -79.80745 | 37814 ft | 489 kts | 288° |
| 2026-05-10 00:59 | 8.89508 | -79.87205 | 37827 ft | 488 kts | 289° |
| 2026-05-10 01:00 | 8.91756 | -79.93702 | 37825 ft | 488 kts | 289° |
| 2026-05-10 01:00 | 8.93990 | -80.00160 | 37824 ft | 489 kts | 289° |
| 2026-05-10 01:01 | 8.96243 | -80.06677 | 37845 ft | 489 kts | 289° |
| 2026-05-10 01:01 | 8.98474 | -80.13136 | 37843 ft | 488 kts | 289° |
| 2026-05-10 01:02 | 9.00713 | -80.19624 | 37850 ft | 488 kts | 289° |
| 2026-05-10 01:02 | 9.02954 | -80.26122 | 37849 ft | 488 kts | 289° |
| 2026-05-10 01:03 | 9.05185 | -80.32595 | 37856 ft | 489 kts | 289° |
| 2026-05-10 01:03 | 9.07428 | -80.39108 | 37855 ft | 489 kts | 289° |
| 2026-05-10 01:04 | 9.09655 | -80.45575 | 37856 ft | 489 kts | 289° |
| 2026-05-10 01:04 | 9.11893 | -80.52081 | 37865 ft | 488 kts | 289° |
| 2026-05-10 01:05 | 9.14121 | -80.58563 | 37863 ft | 489 kts | 289° |
| 2026-05-10 01:05 | 9.16351 | -80.65053 | 37874 ft | 490 kts | 289° |
| 2026-05-10 01:06 | 9.18591 | -80.71577 | 37875 ft | 490 kts | 289° |
| 2026-05-10 01:06 | 9.20818 | -80.78067 | 37885 ft | 489 kts | 289° |
| 2026-05-10 01:07 | 9.23054 | -80.84586 | 37881 ft | 489 kts | 289° |
| 2026-05-10 01:07 | 9.25274 | -80.91065 | 37885 ft | 490 kts | 289° |
| 2026-05-10 01:08 | 9.27512 | -80.97601 | 37882 ft | 491 kts | 289° |
| 2026-05-10 01:08 | 9.29754 | -81.04151 | 37882 ft | 491 kts | 289° |
| 2026-05-10 01:09 | 9.31987 | -81.10681 | 37885 ft | 491 kts | 289° |
| 2026-05-10 01:09 | 9.34220 | -81.17213 | 37885 ft | 491 kts | 289° |
| 2026-05-10 01:10 | 9.36445 | -81.23727 | 37891 ft | 491 kts | 289° |
| 2026-05-10 01:10 | 9.38680 | -81.30277 | 37889 ft | 492 kts | 289° |
| 2026-05-10 01:11 | 9.40904 | -81.36797 | 37889 ft | 492 kts | 290° |
| 2026-05-10 01:11 | 9.43146 | -81.43373 | 37887 ft | 492 kts | 289° |
| 2026-05-10 01:12 | 9.45367 | -81.49892 | 37887 ft | 492 kts | 290° |
| 2026-05-10 01:12 | 9.47603 | -81.56458 | 37893 ft | 492 kts | 289° |
| 2026-05-10 01:13 | 9.49835 | -81.63020 | 37893 ft | 492 kts | 290° |
| 2026-05-10 01:13 | 9.52055 | -81.69551 | 37897 ft | 492 kts | 290° |
| 2026-05-10 01:14 | 9.54283 | -81.76110 | 37895 ft | 492 kts | 290° |
| 2026-05-10 01:14 | 9.56508 | -81.82663 | 37893 ft | 492 kts | 290° |
| 2026-05-10 01:15 | 9.58724 | -81.89195 | 37897 ft | 492 kts | 289° |
| 2026-05-10 01:15 | 9.60947 | -81.95750 | 37898 ft | 492 kts | 289° |
| 2026-05-10 01:16 | 9.63165 | -82.02297 | 37896 ft | 492 kts | 290° |
| 2026-05-10 01:16 | 9.65383 | -82.08850 | 37899 ft | 492 kts | 290° |
| 2026-05-10 01:17 | 9.67600 | -82.15402 | 37897 ft | 492 kts | 290° |
| 2026-05-10 01:17 | 9.69818 | -82.21961 | 37899 ft | 492 kts | 289° |
| 2026-05-10 01:18 | 9.72043 | -82.28548 | 37902 ft | 492 kts | 290° |
| 2026-05-10 01:18 | 9.74252 | -82.35090 | 37900 ft | 492 kts | 290° |
| 2026-05-10 01:19 | 9.76464 | -82.41644 | 37896 ft | 493 kts | 290° |
| 2026-05-10 01:19 | 9.78691 | -82.48248 | 37903 ft | 495 kts | 290° |
| 2026-05-10 01:20 | 9.80915 | -82.54845 | 37902 ft | 495 kts | 291° |
| 2026-05-10 01:20 | 9.82380 | -82.58004 | 37924 ft | 492 kts | 303° |
| 2026-05-10 01:20 | 9.84122 | -82.60984 | 37903 ft | 492 kts | 302° |
| 2026-05-10 01:21 | 9.87627 | -82.66942 | 37909 ft | 493 kts | 302° |
| 2026-05-10 01:21 | 9.91195 | -82.72910 | 37901 ft | 493 kts | 302° |
| 2026-05-10 01:22 | 9.94745 | -82.78831 | 37889 ft | 493 kts | 302° |
| 2026-05-10 01:22 | 9.98312 | -82.84776 | 37883 ft | 493 kts | 302° |
| 2026-05-10 01:23 | 10.01869 | -82.90706 | 37879 ft | 493 kts | 302° |
| 2026-05-10 01:23 | 10.05432 | -82.96649 | 37894 ft | 493 kts | 302° |
| 2026-05-10 01:24 | 10.09008 | -83.02616 | 37880 ft | 493 kts | 302° |
| 2026-05-10 01:24 | 10.12578 | -83.08577 | 37884 ft | 493 kts | 302° |
| 2026-05-10 01:25 | 10.16129 | -83.14508 | 37911 ft | 493 kts | 303° |
| 2026-05-10 01:25 | 10.19692 | -83.20463 | 37898 ft | 493 kts | 302° |
| 2026-05-10 01:26 | 10.23252 | -83.26415 | 37912 ft | 493 kts | 302° |
| 2026-05-10 01:26 | 10.26807 | -83.32364 | 37916 ft | 493 kts | 302° |
| 2026-05-10 01:27 | 10.30359 | -83.38309 | 37898 ft | 493 kts | 302° |
| 2026-05-10 01:27 | 10.33913 | -83.44262 | 37918 ft | 492 kts | 302° |
| 2026-05-10 01:28 | 10.37463 | -83.50210 | 37895 ft | 493 kts | 302° |
| 2026-05-10 01:28 | 10.41006 | -83.56151 | 37898 ft | 492 kts | 303° |
| 2026-05-10 01:29 | 10.44547 | -83.62091 | 37918 ft | 492 kts | 302° |
| 2026-05-10 01:29 | 10.48088 | -83.68033 | 37899 ft | 492 kts | 302° |
| 2026-05-10 01:30 | 10.51019 | -83.72956 | 37902 ft | 492 kts | 302° |
| 2026-05-10 01:30 | 10.55155 | -83.79905 | 37906 ft | 490 kts | 302° |
| 2026-05-10 01:31 | 10.58087 | -83.84833 | 37893 ft | 490 kts | 302° |
| 2026-05-10 01:31 | 10.61613 | -83.90763 | 37910 ft | 490 kts | 302° |
| 2026-05-10 01:32 | 10.65141 | -83.96701 | 37890 ft | 490 kts | 303° |
| 2026-05-10 01:32 | 10.68662 | -84.02629 | 37907 ft | 490 kts | 303° |
| 2026-05-10 01:33 | 10.72177 | -84.08550 | 37890 ft | 491 kts | 303° |
| 2026-05-10 01:33 | 10.75709 | -84.14503 | 37906 ft | 490 kts | 303° |
| 2026-05-10 01:34 | 10.79236 | -84.20452 | 37907 ft | 490 kts | 303° |
| 2026-05-10 01:34 | 10.82760 | -84.26399 | 37887 ft | 490 kts | 303° |
| 2026-05-10 01:35 | 10.86262 | -84.32312 | 37903 ft | 491 kts | 303° |
| 2026-05-10 01:35 | 10.89796 | -84.38282 | 37899 ft | 491 kts | 303° |
| 2026-05-10 01:36 | 10.93321 | -84.44240 | 37901 ft | 491 kts | 303° |
| 2026-05-10 01:36 | 10.96827 | -84.50170 | 37893 ft | 491 kts | 303° |
| 2026-05-10 01:37 | 11.00365 | -84.56156 | 37890 ft | 491 kts | 303° |
| 2026-05-10 01:37 | 11.03872 | -84.62094 | 37888 ft | 491 kts | 303° |
| 2026-05-10 01:38 | 11.07386 | -84.68048 | 37876 ft | 491 kts | 303° |
| 2026-05-10 01:38 | 11.10918 | -84.74035 | 37885 ft | 492 kts | 303° |
| 2026-05-10 01:39 | 11.14434 | -84.79998 | 37883 ft | 492 kts | 303° |
| 2026-05-10 01:39 | 11.17945 | -84.85956 | 37879 ft | 492 kts | 303° |
| 2026-05-10 01:40 | 11.21483 | -84.91963 | 37882 ft | 492 kts | 303° |
| 2026-05-10 01:40 | 11.25000 | -84.97940 | 37882 ft | 492 kts | 303° |
| 2026-05-10 01:41 | 11.28513 | -85.03912 | 37862 ft | 493 kts | 303° |
| 2026-05-10 01:41 | 11.32028 | -85.09891 | 37863 ft | 494 kts | 303° |
| 2026-05-10 01:42 | 11.35553 | -85.15891 | 37857 ft | 494 kts | 303° |
| 2026-05-10 01:42 | 11.39076 | -85.21890 | 37859 ft | 494 kts | 303° |